sensor_id;sensor_type;location;lat;lon;timestamp;P1;durP1;ratioP1;P2;durP2;ratioP2
15806;SDS011;8005;51.368;6.140;2022-08-19T00:00:27;34.22;;;30.63;;
15806;SDS011;8005;51.368;6.140;2022-08-19T00:01:59;34.95;;;30.95;;
15806;SDS011;8005;51.368;6.140;2022-08-19T00:03:31;35.35;;;30.10;;
15806;SDS011;8005;51.368;6.140;2022-08-19T00:05:03;38.83;;;32.07;;
15806;SDS011;8005;51.368;6.140;2022-08-19T00:06:36;35.00;;;30.60;;
15806;SDS011;8005;51.368;6.140;2022-08-19T00:08:09;35.80;;;31.90;;
15806;SDS011;8005;51.368;6.140;2022-08-19T00:09:40;34.88;;;30.20;;
15806;SDS011;8005;51.368;6.140;2022-08-19T00:11:12;37.22;;;31.15;;
15806;SDS011;8005;51.368;6.140;2022-08-19T00:12:56;36.45;;;30.83;;
15806;SDS011;8005;51.368;6.140;2022-08-19T00:14:28;32.78;;;29.05;;
15806;SDS011;8005;51.368;6.140;2022-08-19T00:16:03;34.35;;;29.75;;
15806;SDS011;8005;51.368;6.140;2022-08-19T00:17:39;33.55;;;30.13;;
15806;SDS011;8005;51.368;6.140;2022-08-19T00:19:12;37.08;;;30.13;;
15806;SDS011;8005;51.368;6.140;2022-08-19T00:20:44;35.45;;;28.90;;
15806;SDS011;8005;51.368;6.140;2022-08-19T00:22:16;33.15;;;29.65;;
15806;SDS011;8005;51.368;6.140;2022-08-19T00:23:49;32.80;;;27.85;;
15806;SDS011;8005;51.368;6.140;2022-08-19T00:25:21;33.50;;;29.98;;
15806;SDS011;8005;51.368;6.140;2022-08-19T00:27:01;33.15;;;29.48;;
15806;SDS011;8005;51.368;6.140;2022-08-19T00:28:53;33.58;;;29.92;;
15806;SDS011;8005;51.368;6.140;2022-08-19T00:31:59;33.63;;;28.90;;
15806;SDS011;8005;51.368;6.140;2022-08-19T00:33:31;36.80;;;30.00;;
15806;SDS011;8005;51.368;6.140;2022-08-19T00:36:36;34.70;;;28.90;;
15806;SDS011;8005;51.368;6.140;2022-08-19T00:38:08;35.10;;;30.33;;
15806;SDS011;8005;51.368;6.140;2022-08-19T00:39:40;32.63;;;29.13;;
15806;SDS011;8005;51.368;6.140;2022-08-19T00:41:13;34.75;;;29.38;;
15806;SDS011;8005;51.368;6.140;2022-08-19T00:42:46;34.90;;;29.88;;
15806;SDS011;8005;51.368;6.140;2022-08-19T00:44:20;34.42;;;28.33;;
15806;SDS011;8005;51.368;6.140;2022-08-19T00:45:57;34.42;;;28.48;;
15806;SDS011;8005;51.368;6.140;2022-08-19T00:47:29;33.10;;;29.50;;
15806;SDS011;8005;51.368;6.140;2022-08-19T00:49:02;35.70;;;29.50;;
15806;SDS011;8005;51.368;6.140;2022-08-19T00:50:39;34.45;;;29.35;;
15806;SDS011;8005;51.368;6.140;2022-08-19T00:52:24;34.63;;;29.70;;
15806;SDS011;8005;51.368;6.140;2022-08-19T00:54:04;32.08;;;27.92;;
15806;SDS011;8005;51.368;6.140;2022-08-19T00:57:09;28.65;;;25.60;;
15806;SDS011;8005;51.368;6.140;2022-08-19T00:58:46;29.73;;;26.52;;
15806;SDS011;8005;51.368;6.140;2022-08-19T01:00:18;31.55;;;27.98;;
15806;SDS011;8005;51.368;6.140;2022-08-19T01:01:50;34.85;;;29.25;;
15806;SDS011;8005;51.368;6.140;2022-08-19T01:03:23;31.70;;;28.30;;
15806;SDS011;8005;51.368;6.140;2022-08-19T01:04:55;30.08;;;26.85;;
15806;SDS011;8005;51.368;6.140;2022-08-19T01:06:27;30.58;;;27.27;;
15806;SDS011;8005;51.368;6.140;2022-08-19T01:07:59;29.95;;;26.80;;
15806;SDS011;8005;51.368;6.140;2022-08-19T01:09:32;31.10;;;27.52;;
15806;SDS011;8005;51.368;6.140;2022-08-19T01:11:05;33.60;;;29.85;;
15806;SDS011;8005;51.368;6.140;2022-08-19T01:12:40;33.75;;;28.73;;
15806;SDS011;8005;51.368;6.140;2022-08-19T01:14:12;33.53;;;29.95;;
15806;SDS011;8005;51.368;6.140;2022-08-19T01:15:47;32.53;;;28.15;;
15806;SDS011;8005;51.368;6.140;2022-08-19T01:17:21;31.85;;;27.85;;
15806;SDS011;8005;51.368;6.140;2022-08-19T01:18:54;33.10;;;29.42;;
15806;SDS011;8005;51.368;6.140;2022-08-19T01:20:28;34.88;;;28.02;;
15806;SDS011;8005;51.368;6.140;2022-08-19T01:22:08;32.58;;;27.40;;
15806;SDS011;8005;51.368;6.140;2022-08-19T01:23:47;31.92;;;28.52;;
15806;SDS011;8005;51.368;6.140;2022-08-19T01:25:20;33.70;;;29.13;;
15806;SDS011;8005;51.368;6.140;2022-08-19T01:26:56;33.90;;;29.23;;
15806;SDS011;8005;51.368;6.140;2022-08-19T01:28:28;37.55;;;30.15;;
15806;SDS011;8005;51.368;6.140;2022-08-19T01:30:05;32.22;;;28.70;;
15806;SDS011;8005;51.368;6.140;2022-08-19T01:31:38;34.58;;;30.48;;
15806;SDS011;8005;51.368;6.140;2022-08-19T01:33:10;35.78;;;30.60;;
15806;SDS011;8005;51.368;6.140;2022-08-19T01:34:42;33.58;;;29.92;;
15806;SDS011;8005;51.368;6.140;2022-08-19T01:36:22;35.17;;;30.95;;
15806;SDS011;8005;51.368;6.140;2022-08-19T01:37:58;34.20;;;29.45;;
15806;SDS011;8005;51.368;6.140;2022-08-19T01:39:32;32.70;;;29.08;;
15806;SDS011;8005;51.368;6.140;2022-08-19T01:41:04;33.78;;;29.55;;
15806;SDS011;8005;51.368;6.140;2022-08-19T01:42:41;34.03;;;30.08;;
15806;SDS011;8005;51.368;6.140;2022-08-19T01:44:13;39.70;;;32.13;;
15806;SDS011;8005;51.368;6.140;2022-08-19T01:45:49;37.85;;;31.35;;
15806;SDS011;8005;51.368;6.140;2022-08-19T01:47:22;34.97;;;31.15;;
15806;SDS011;8005;51.368;6.140;2022-08-19T01:48:54;39.75;;;31.08;;
15806;SDS011;8005;51.368;6.140;2022-08-19T01:50:26;37.00;;;31.83;;
15806;SDS011;8005;51.368;6.140;2022-08-19T01:51:59;32.28;;;28.80;;
15806;SDS011;8005;51.368;6.140;2022-08-19T01:53:32;37.55;;;32.17;;
15806;SDS011;8005;51.368;6.140;2022-08-19T01:55:05;35.80;;;31.02;;
15806;SDS011;8005;51.368;6.140;2022-08-19T01:56:39;36.05;;;31.52;;
15806;SDS011;8005;51.368;6.140;2022-08-19T01:58:15;36.67;;;32.60;;
15806;SDS011;8005;51.368;6.140;2022-08-19T01:59:50;36.05;;;30.67;;
15806;SDS011;8005;51.368;6.140;2022-08-19T02:03:01;37.15;;;32.35;;
15806;SDS011;8005;51.368;6.140;2022-08-19T02:04:33;35.88;;;31.52;;
15806;SDS011;8005;51.368;6.140;2022-08-19T02:06:05;34.08;;;30.38;;
15806;SDS011;8005;51.368;6.140;2022-08-19T02:07:38;37.22;;;32.15;;
15806;SDS011;8005;51.368;6.140;2022-08-19T02:09:11;41.15;;;34.10;;
15806;SDS011;8005;51.368;6.140;2022-08-19T02:10:43;39.25;;;33.22;;
15806;SDS011;8005;51.368;6.140;2022-08-19T02:12:16;40.35;;;33.35;;
15806;SDS011;8005;51.368;6.140;2022-08-19T02:13:47;42.03;;;35.03;;
15806;SDS011;8005;51.368;6.140;2022-08-19T02:15:21;41.55;;;34.80;;
15806;SDS011;8005;51.368;6.140;2022-08-19T02:16:53;44.30;;;36.28;;
15806;SDS011;8005;51.368;6.140;2022-08-19T02:18:25;40.47;;;34.77;;
15806;SDS011;8005;51.368;6.140;2022-08-19T02:19:58;45.03;;;36.60;;
15806;SDS011;8005;51.368;6.140;2022-08-19T02:21:30;42.85;;;35.60;;
15806;SDS011;8005;51.368;6.140;2022-08-19T02:23:02;42.63;;;35.28;;
15806;SDS011;8005;51.368;6.140;2022-08-19T02:24:34;41.67;;;34.88;;
15806;SDS011;8005;51.368;6.140;2022-08-19T02:26:06;42.78;;;36.83;;
15806;SDS011;8005;51.368;6.140;2022-08-19T02:27:39;44.50;;;37.97;;
15806;SDS011;8005;51.368;6.140;2022-08-19T02:30:43;50.97;;;38.80;;
15806;SDS011;8005;51.368;6.140;2022-08-19T02:32:15;47.42;;;38.28;;
15806;SDS011;8005;51.368;6.140;2022-08-19T02:35:19;49.80;;;40.47;;
15806;SDS011;8005;51.368;6.140;2022-08-19T02:36:52;49.05;;;40.30;;
15806;SDS011;8005;51.368;6.140;2022-08-19T02:38:24;48.40;;;40.40;;
15806;SDS011;8005;51.368;6.140;2022-08-19T02:39:58;53.15;;;40.78;;
15806;SDS011;8005;51.368;6.140;2022-08-19T02:41:32;47.58;;;40.42;;
15806;SDS011;8005;51.368;6.140;2022-08-19T02:43:05;50.85;;;41.45;;
15806;SDS011;8005;51.368;6.140;2022-08-19T02:44:38;49.30;;;40.30;;
15806;SDS011;8005;51.368;6.140;2022-08-19T02:47:52;50.85;;;42.13;;
15806;SDS011;8005;51.368;6.140;2022-08-19T02:49:24;48.47;;;40.83;;
15806;SDS011;8005;51.368;6.140;2022-08-19T02:50:56;53.30;;;42.57;;
15806;SDS011;8005;51.368;6.140;2022-08-19T02:52:28;50.58;;;40.20;;
15806;SDS011;8005;51.368;6.140;2022-08-19T02:54:00;52.33;;;41.97;;
15806;SDS011;8005;51.368;6.140;2022-08-19T02:58:48;48.53;;;38.75;;
15806;SDS011;8005;51.368;6.140;2022-08-19T03:00:22;49.35;;;40.28;;
15806;SDS011;8005;51.368;6.140;2022-08-19T03:01:55;48.80;;;39.90;;
15806;SDS011;8005;51.368;6.140;2022-08-19T03:03:27;48.83;;;39.67;;
15806;SDS011;8005;51.368;6.140;2022-08-19T03:04:59;54.87;;;40.47;;
15806;SDS011;8005;51.368;6.140;2022-08-19T03:06:31;47.25;;;38.15;;
15806;SDS011;8005;51.368;6.140;2022-08-19T03:09:37;46.90;;;37.55;;
15806;SDS011;8005;51.368;6.140;2022-08-19T03:11:16;45.95;;;37.90;;
15806;SDS011;8005;51.368;6.140;2022-08-19T03:12:48;50.83;;;40.08;;
15806;SDS011;8005;51.368;6.140;2022-08-19T03:14:20;47.28;;;39.08;;
15806;SDS011;8005;51.368;6.140;2022-08-19T03:15:52;45.57;;;38.93;;
15806;SDS011;8005;51.368;6.140;2022-08-19T03:17:24;47.23;;;39.70;;
15806;SDS011;8005;51.368;6.140;2022-08-19T03:18:57;47.45;;;38.15;;
15806;SDS011;8005;51.368;6.140;2022-08-19T03:20:32;48.83;;;39.03;;
15806;SDS011;8005;51.368;6.140;2022-08-19T03:22:04;47.80;;;39.53;;
15806;SDS011;8005;51.368;6.140;2022-08-19T03:23:36;50.72;;;39.50;;
15806;SDS011;8005;51.368;6.140;2022-08-19T03:25:08;45.40;;;37.47;;
15806;SDS011;8005;51.368;6.140;2022-08-19T03:26:41;48.45;;;39.03;;
15806;SDS011;8005;51.368;6.140;2022-08-19T03:28:15;47.88;;;39.33;;
15806;SDS011;8005;51.368;6.140;2022-08-19T03:29:47;48.20;;;39.88;;
15806;SDS011;8005;51.368;6.140;2022-08-19T03:33:14;49.15;;;39.42;;
15806;SDS011;8005;51.368;6.140;2022-08-19T03:34:58;45.92;;;38.08;;
15806;SDS011;8005;51.368;6.140;2022-08-19T03:36:30;44.17;;;37.75;;
15806;SDS011;8005;51.368;6.140;2022-08-19T03:38:03;50.63;;;40.27;;
15806;SDS011;8005;51.368;6.140;2022-08-19T03:39:37;49.25;;;39.88;;
15806;SDS011;8005;51.368;6.140;2022-08-19T03:41:11;49.83;;;40.72;;
15806;SDS011;8005;51.368;6.140;2022-08-19T03:42:49;43.65;;;37.90;;
15806;SDS011;8005;51.368;6.140;2022-08-19T03:44:21;49.83;;;40.60;;
15806;SDS011;8005;51.368;6.140;2022-08-19T03:46:00;51.88;;;42.05;;
15806;SDS011;8005;51.368;6.140;2022-08-19T03:47:35;45.88;;;39.72;;
15806;SDS011;8005;51.368;6.140;2022-08-19T03:49:08;51.20;;;40.63;;
15806;SDS011;8005;51.368;6.140;2022-08-19T03:50:40;47.70;;;38.92;;
15806;SDS011;8005;51.368;6.140;2022-08-19T03:52:12;49.85;;;40.10;;
15806;SDS011;8005;51.368;6.140;2022-08-19T03:53:45;49.83;;;41.13;;
15806;SDS011;8005;51.368;6.140;2022-08-19T03:55:17;48.95;;;40.10;;
15806;SDS011;8005;51.368;6.140;2022-08-19T03:56:51;53.33;;;42.22;;
15806;SDS011;8005;51.368;6.140;2022-08-19T03:58:25;52.38;;;41.05;;
15806;SDS011;8005;51.368;6.140;2022-08-19T04:00:00;57.65;;;44.53;;
15806;SDS011;8005;51.368;6.140;2022-08-19T04:01:43;57.22;;;44.35;;
15806;SDS011;8005;51.368;6.140;2022-08-19T04:03:15;51.80;;;42.05;;
15806;SDS011;8005;51.368;6.140;2022-08-19T04:04:49;52.47;;;41.60;;
15806;SDS011;8005;51.368;6.140;2022-08-19T04:06:27;53.97;;;41.80;;
15806;SDS011;8005;51.368;6.140;2022-08-19T04:08:00;53.30;;;43.00;;
15806;SDS011;8005;51.368;6.140;2022-08-19T04:09:33;58.35;;;42.88;;
15806;SDS011;8005;51.368;6.140;2022-08-19T04:11:06;54.75;;;42.95;;
15806;SDS011;8005;51.368;6.140;2022-08-19T04:12:39;51.95;;;40.40;;
15806;SDS011;8005;51.368;6.140;2022-08-19T04:14:13;48.88;;;41.00;;
15806;SDS011;8005;51.368;6.140;2022-08-19T04:15:46;50.38;;;38.78;;
15806;SDS011;8005;51.368;6.140;2022-08-19T04:17:18;52.15;;;39.78;;
15806;SDS011;8005;51.368;6.140;2022-08-19T04:18:50;47.42;;;38.97;;
15806;SDS011;8005;51.368;6.140;2022-08-19T04:20:22;51.77;;;39.57;;
15806;SDS011;8005;51.368;6.140;2022-08-19T04:21:54;48.53;;;37.22;;
15806;SDS011;8005;51.368;6.140;2022-08-19T04:23:28;46.67;;;37.78;;
15806;SDS011;8005;51.368;6.140;2022-08-19T04:25:00;47.38;;;37.05;;
15806;SDS011;8005;51.368;6.140;2022-08-19T04:26:33;46.53;;;38.22;;
15806;SDS011;8005;51.368;6.140;2022-08-19T04:28:06;46.60;;;38.40;;
15806;SDS011;8005;51.368;6.140;2022-08-19T04:29:38;51.42;;;39.22;;
15806;SDS011;8005;51.368;6.140;2022-08-19T04:31:12;50.20;;;38.55;;
15806;SDS011;8005;51.368;6.140;2022-08-19T04:32:45;46.72;;;36.70;;
15806;SDS011;8005;51.368;6.140;2022-08-19T04:34:18;48.83;;;37.17;;
15806;SDS011;8005;51.368;6.140;2022-08-19T04:35:53;46.67;;;37.17;;
15806;SDS011;8005;51.368;6.140;2022-08-19T04:37:26;44.65;;;35.58;;
15806;SDS011;8005;51.368;6.140;2022-08-19T04:39:08;53.83;;;39.92;;
15806;SDS011;8005;51.368;6.140;2022-08-19T04:40:42;50.15;;;37.75;;
15806;SDS011;8005;51.368;6.140;2022-08-19T04:42:33;49.33;;;37.90;;
15806;SDS011;8005;51.368;6.140;2022-08-19T04:44:11;48.85;;;36.75;;
15806;SDS011;8005;51.368;6.140;2022-08-19T04:45:44;51.15;;;39.47;;
15806;SDS011;8005;51.368;6.140;2022-08-19T04:47:17;49.38;;;38.55;;
15806;SDS011;8005;51.368;6.140;2022-08-19T04:49:08;51.30;;;38.97;;
15806;SDS011;8005;51.368;6.140;2022-08-19T04:50:44;45.30;;;36.05;;
15806;SDS011;8005;51.368;6.140;2022-08-19T04:52:16;54.30;;;39.67;;
15806;SDS011;8005;51.368;6.140;2022-08-19T04:53:47;46.83;;;36.72;;
15806;SDS011;8005;51.368;6.140;2022-08-19T04:55:19;50.17;;;39.70;;
15806;SDS011;8005;51.368;6.140;2022-08-19T04:56:51;50.97;;;38.73;;
15806;SDS011;8005;51.368;6.140;2022-08-19T04:58:25;50.50;;;38.97;;
15806;SDS011;8005;51.368;6.140;2022-08-19T04:59:58;56.88;;;40.80;;
15806;SDS011;8005;51.368;6.140;2022-08-19T05:01:31;56.23;;;40.63;;
15806;SDS011;8005;51.368;6.140;2022-08-19T05:03:04;55.33;;;41.20;;
15806;SDS011;8005;51.368;6.140;2022-08-19T05:04:38;56.30;;;40.50;;
15806;SDS011;8005;51.368;6.140;2022-08-19T05:07:45;62.38;;;42.83;;
15806;SDS011;8005;51.368;6.140;2022-08-19T05:09:17;56.97;;;40.70;;
15806;SDS011;8005;51.368;6.140;2022-08-19T05:10:50;59.90;;;43.55;;
15806;SDS011;8005;51.368;6.140;2022-08-19T05:12:22;54.00;;;41.28;;
15806;SDS011;8005;51.368;6.140;2022-08-19T05:14:00;51.65;;;38.58;;
15806;SDS011;8005;51.368;6.140;2022-08-19T05:15:33;58.30;;;43.45;;
15806;SDS011;8005;51.368;6.140;2022-08-19T05:18:59;59.85;;;41.50;;
15806;SDS011;8005;51.368;6.140;2022-08-19T05:20:49;54.40;;;39.03;;
15806;SDS011;8005;51.368;6.140;2022-08-19T05:22:41;54.25;;;40.03;;
15806;SDS011;8005;51.368;6.140;2022-08-19T05:24:14;53.47;;;40.33;;
15806;SDS011;8005;51.368;6.140;2022-08-19T05:25:46;57.42;;;42.40;;
15806;SDS011;8005;51.368;6.140;2022-08-19T05:27:18;57.43;;;43.10;;
15806;SDS011;8005;51.368;6.140;2022-08-19T05:28:50;58.53;;;43.07;;
15806;SDS011;8005;51.368;6.140;2022-08-19T05:30:25;57.90;;;42.83;;
15806;SDS011;8005;51.368;6.140;2022-08-19T05:32:16;58.58;;;43.80;;
15806;SDS011;8005;51.368;6.140;2022-08-19T05:33:48;65.17;;;44.83;;
15806;SDS011;8005;51.368;6.140;2022-08-19T05:35:21;63.60;;;45.63;;
15806;SDS011;8005;51.368;6.140;2022-08-19T05:36:56;64.45;;;46.03;;
15806;SDS011;8005;51.368;6.140;2022-08-19T05:38:29;64.32;;;45.83;;
15806;SDS011;8005;51.368;6.140;2022-08-19T05:40:01;65.30;;;46.65;;
15806;SDS011;8005;51.368;6.140;2022-08-19T05:41:34;59.60;;;45.30;;
15806;SDS011;8005;51.368;6.140;2022-08-19T05:43:06;67.13;;;48.42;;
15806;SDS011;8005;51.368;6.140;2022-08-19T05:44:40;61.65;;;45.28;;
15806;SDS011;8005;51.368;6.140;2022-08-19T05:46:17;64.82;;;44.40;;
15806;SDS011;8005;51.368;6.140;2022-08-19T05:47:58;62.58;;;46.33;;
15806;SDS011;8005;51.368;6.140;2022-08-19T05:49:30;67.90;;;46.85;;
15806;SDS011;8005;51.368;6.140;2022-08-19T05:51:03;62.47;;;44.90;;
15806;SDS011;8005;51.368;6.140;2022-08-19T05:52:38;71.35;;;49.47;;
15806;SDS011;8005;51.368;6.140;2022-08-19T05:54:14;67.00;;;45.85;;
15806;SDS011;8005;51.368;6.140;2022-08-19T05:55:45;66.13;;;48.88;;
15806;SDS011;8005;51.368;6.140;2022-08-19T05:57:18;66.37;;;48.07;;
15806;SDS011;8005;51.368;6.140;2022-08-19T05:58:50;72.70;;;50.55;;
15806;SDS011;8005;51.368;6.140;2022-08-19T06:00:22;70.03;;;48.90;;
15806;SDS011;8005;51.368;6.140;2022-08-19T06:01:55;66.20;;;48.08;;
15806;SDS011;8005;51.368;6.140;2022-08-19T06:03:28;69.63;;;46.83;;
15806;SDS011;8005;51.368;6.140;2022-08-19T06:05:00;70.70;;;49.60;;
15806;SDS011;8005;51.368;6.140;2022-08-19T06:08:05;68.68;;;48.22;;
15806;SDS011;8005;51.368;6.140;2022-08-19T06:09:39;73.53;;;51.13;;
15806;SDS011;8005;51.368;6.140;2022-08-19T06:11:36;68.22;;;49.90;;
15806;SDS011;8005;51.368;6.140;2022-08-19T06:13:35;72.10;;;50.80;;
15806;SDS011;8005;51.368;6.140;2022-08-19T06:15:08;72.50;;;52.60;;
15806;SDS011;8005;51.368;6.140;2022-08-19T06:16:42;71.30;;;52.00;;
15806;SDS011;8005;51.368;6.140;2022-08-19T06:18:15;66.50;;;48.30;;
15806;SDS011;8005;51.368;6.140;2022-08-19T06:19:48;73.85;;;51.75;;
15806;SDS011;8005;51.368;6.140;2022-08-19T06:21:22;73.65;;;51.97;;
15806;SDS011;8005;51.368;6.140;2022-08-19T06:22:56;69.32;;;48.35;;
15806;SDS011;8005;51.368;6.140;2022-08-19T06:24:28;72.65;;;50.42;;
15806;SDS011;8005;51.368;6.140;2022-08-19T06:27:32;73.13;;;50.63;;
15806;SDS011;8005;51.368;6.140;2022-08-19T06:29:05;74.43;;;50.53;;
15806;SDS011;8005;51.368;6.140;2022-08-19T06:30:37;71.03;;;48.72;;
15806;SDS011;8005;51.368;6.140;2022-08-19T06:32:09;81.82;;;52.88;;
15806;SDS011;8005;51.368;6.140;2022-08-19T06:33:42;77.18;;;50.72;;
15806;SDS011;8005;51.368;6.140;2022-08-19T06:35:16;79.97;;;49.70;;
15806;SDS011;8005;51.368;6.140;2022-08-19T06:36:49;78.80;;;51.80;;
15806;SDS011;8005;51.368;6.140;2022-08-19T06:38:22;74.57;;;50.50;;
15806;SDS011;8005;51.368;6.140;2022-08-19T06:39:54;83.07;;;53.38;;
15806;SDS011;8005;51.368;6.140;2022-08-19T06:41:27;74.38;;;49.88;;
15806;SDS011;8005;51.368;6.140;2022-08-19T06:42:59;77.63;;;51.20;;
15806;SDS011;8005;51.368;6.140;2022-08-19T06:44:39;76.35;;;50.20;;
15806;SDS011;8005;51.368;6.140;2022-08-19T06:46:14;75.80;;;47.88;;
15806;SDS011;8005;51.368;6.140;2022-08-19T06:47:50;72.32;;;48.63;;
15806;SDS011;8005;51.368;6.140;2022-08-19T06:49:25;78.78;;;50.40;;
15806;SDS011;8005;51.368;6.140;2022-08-19T06:50:59;75.63;;;47.28;;
15806;SDS011;8005;51.368;6.140;2022-08-19T06:52:31;71.63;;;48.28;;
15806;SDS011;8005;51.368;6.140;2022-08-19T06:54:07;72.25;;;48.30;;
15806;SDS011;8005;51.368;6.140;2022-08-19T06:55:50;72.68;;;46.72;;
15806;SDS011;8005;51.368;6.140;2022-08-19T06:57:28;76.32;;;47.00;;
15806;SDS011;8005;51.368;6.140;2022-08-19T06:59:05;71.43;;;46.22;;
15806;SDS011;8005;51.368;6.140;2022-08-19T07:00:39;72.40;;;44.75;;
15806;SDS011;8005;51.368;6.140;2022-08-19T07:02:11;71.32;;;46.83;;
15806;SDS011;8005;51.368;6.140;2022-08-19T07:03:43;71.72;;;45.65;;
15806;SDS011;8005;51.368;6.140;2022-08-19T07:05:16;72.32;;;45.33;;
15806;SDS011;8005;51.368;6.140;2022-08-19T07:06:55;72.13;;;44.45;;
15806;SDS011;8005;51.368;6.140;2022-08-19T07:08:29;68.78;;;43.58;;
15806;SDS011;8005;51.368;6.140;2022-08-19T07:10:02;69.57;;;41.63;;
15806;SDS011;8005;51.368;6.140;2022-08-19T07:11:38;67.35;;;43.53;;
15806;SDS011;8005;51.368;6.140;2022-08-19T07:13:10;67.40;;;44.60;;
15806;SDS011;8005;51.368;6.140;2022-08-19T07:16:16;70.93;;;43.85;;
15806;SDS011;8005;51.368;6.140;2022-08-19T07:17:59;73.97;;;46.78;;
15806;SDS011;8005;51.368;6.140;2022-08-19T07:19:31;69.15;;;44.00;;
15806;SDS011;8005;51.368;6.140;2022-08-19T07:22:39;70.28;;;45.72;;
15806;SDS011;8005;51.368;6.140;2022-08-19T07:24:11;72.78;;;46.35;;
15806;SDS011;8005;51.368;6.140;2022-08-19T07:25:43;75.93;;;46.97;;
15806;SDS011;8005;51.368;6.140;2022-08-19T07:27:23;70.03;;;44.90;;
15806;SDS011;8005;51.368;6.140;2022-08-19T07:28:56;72.68;;;46.17;;
15806;SDS011;8005;51.368;6.140;2022-08-19T07:30:29;71.55;;;46.38;;
15806;SDS011;8005;51.368;6.140;2022-08-19T07:32:02;72.78;;;44.60;;
15806;SDS011;8005;51.368;6.140;2022-08-19T07:33:41;68.72;;;43.92;;
15806;SDS011;8005;51.368;6.140;2022-08-19T07:36:46;69.00;;;44.58;;
15806;SDS011;8005;51.368;6.140;2022-08-19T07:38:18;70.88;;;44.05;;
15806;SDS011;8005;51.368;6.140;2022-08-19T07:39:50;66.17;;;43.73;;
15806;SDS011;8005;51.368;6.140;2022-08-19T07:41:23;64.18;;;42.25;;
15806;SDS011;8005;51.368;6.140;2022-08-19T07:42:56;65.65;;;42.78;;
15806;SDS011;8005;51.368;6.140;2022-08-19T07:44:28;65.88;;;42.03;;
15806;SDS011;8005;51.368;6.140;2022-08-19T07:46:00;64.55;;;42.75;;
15806;SDS011;8005;51.368;6.140;2022-08-19T07:47:32;64.75;;;41.92;;
15806;SDS011;8005;51.368;6.140;2022-08-19T07:49:21;65.07;;;42.38;;
15806;SDS011;8005;51.368;6.140;2022-08-19T07:50:55;62.83;;;41.70;;
15806;SDS011;8005;51.368;6.140;2022-08-19T07:52:28;63.03;;;41.28;;
15806;SDS011;8005;51.368;6.140;2022-08-19T07:54:00;69.30;;;45.40;;
15806;SDS011;8005;51.368;6.140;2022-08-19T07:55:32;66.90;;;42.27;;
15806;SDS011;8005;51.368;6.140;2022-08-19T07:57:13;65.10;;;41.95;;
15806;SDS011;8005;51.368;6.140;2022-08-19T07:58:46;67.47;;;44.20;;
15806;SDS011;8005;51.368;6.140;2022-08-19T08:00:20;71.15;;;44.83;;
15806;SDS011;8005;51.368;6.140;2022-08-19T08:01:55;68.28;;;44.97;;
15806;SDS011;8005;51.368;6.140;2022-08-19T08:05:18;69.07;;;43.95;;
15806;SDS011;8005;51.368;6.140;2022-08-19T08:07:14;63.47;;;41.50;;
15806;SDS011;8005;51.368;6.140;2022-08-19T08:09:05;66.60;;;41.53;;
15806;SDS011;8005;51.368;6.140;2022-08-19T08:10:46;62.92;;;41.55;;
15806;SDS011;8005;51.368;6.140;2022-08-19T08:12:25;59.85;;;43.33;;
15806;SDS011;8005;51.368;6.140;2022-08-19T08:14:05;59.00;;;41.08;;
15806;SDS011;8005;51.368;6.140;2022-08-19T08:15:57;62.05;;;40.72;;
15806;SDS011;8005;51.368;6.140;2022-08-19T08:17:30;53.47;;;38.10;;
15806;SDS011;8005;51.368;6.140;2022-08-19T08:19:22;57.80;;;39.00;;
15806;SDS011;8005;51.368;6.140;2022-08-19T08:20:56;54.85;;;39.00;;
15806;SDS011;8005;51.368;6.140;2022-08-19T08:22:32;58.58;;;39.58;;
15806;SDS011;8005;51.368;6.140;2022-08-19T08:24:25;55.35;;;34.60;;
15806;SDS011;8005;51.368;6.140;2022-08-19T08:25:59;50.75;;;33.67;;
15806;SDS011;8005;51.368;6.140;2022-08-19T08:27:35;53.97;;;34.55;;
15806;SDS011;8005;51.368;6.140;2022-08-19T08:29:08;45.58;;;31.85;;
15806;SDS011;8005;51.368;6.140;2022-08-19T08:30:43;45.40;;;32.85;;
15806;SDS011;8005;51.368;6.140;2022-08-19T08:32:17;46.97;;;32.67;;
15806;SDS011;8005;51.368;6.140;2022-08-19T08:33:49;44.88;;;30.92;;
15806;SDS011;8005;51.368;6.140;2022-08-19T08:35:22;44.93;;;29.97;;
15806;SDS011;8005;51.368;6.140;2022-08-19T08:36:54;40.08;;;27.95;;
15806;SDS011;8005;51.368;6.140;2022-08-19T08:38:27;43.75;;;30.58;;
15806;SDS011;8005;51.368;6.140;2022-08-19T08:42:07;42.97;;;28.10;;
15806;SDS011;8005;51.368;6.140;2022-08-19T08:43:49;42.42;;;28.88;;
15806;SDS011;8005;51.368;6.140;2022-08-19T08:45:23;41.92;;;32.35;;
15806;SDS011;8005;51.368;6.140;2022-08-19T08:46:57;41.75;;;30.75;;
15806;SDS011;8005;51.368;6.140;2022-08-19T08:50:31;41.70;;;29.20;;
15806;SDS011;8005;51.368;6.140;2022-08-19T08:52:09;39.78;;;26.42;;
15806;SDS011;8005;51.368;6.140;2022-08-19T08:53:45;38.85;;;28.48;;
15806;SDS011;8005;51.368;6.140;2022-08-19T08:55:19;39.00;;;28.92;;
15806;SDS011;8005;51.368;6.140;2022-08-19T08:56:54;41.08;;;28.27;;
15806;SDS011;8005;51.368;6.140;2022-08-19T08:58:39;36.30;;;26.17;;
15806;SDS011;8005;51.368;6.140;2022-08-19T09:01:59;34.78;;;25.17;;
15806;SDS011;8005;51.368;6.140;2022-08-19T09:03:31;39.13;;;24.38;;
15806;SDS011;8005;51.368;6.140;2022-08-19T09:05:03;33.00;;;23.83;;
15806;SDS011;8005;51.368;6.140;2022-08-19T09:09:03;32.90;;;23.75;;
15806;SDS011;8005;51.368;6.140;2022-08-19T09:10:43;28.60;;;21.67;;
15806;SDS011;8005;51.368;6.140;2022-08-19T09:14:10;32.45;;;20.45;;
15806;SDS011;8005;51.368;6.140;2022-08-19T09:16:06;30.52;;;21.35;;
15806;SDS011;8005;51.368;6.140;2022-08-19T09:17:44;29.10;;;21.05;;
15806;SDS011;8005;51.368;6.140;2022-08-19T09:19:20;31.20;;;22.90;;
15806;SDS011;8005;51.368;6.140;2022-08-19T09:20:52;30.00;;;22.05;;
15806;SDS011;8005;51.368;6.140;2022-08-19T09:22:24;31.25;;;21.50;;
15806;SDS011;8005;51.368;6.140;2022-08-19T09:23:58;27.90;;;21.40;;
15806;SDS011;8005;51.368;6.140;2022-08-19T09:25:30;31.13;;;21.05;;
15806;SDS011;8005;51.368;6.140;2022-08-19T09:27:03;26.73;;;19.45;;
15806;SDS011;8005;51.368;6.140;2022-08-19T09:28:49;28.48;;;20.30;;
15806;SDS011;8005;51.368;6.140;2022-08-19T09:30:25;29.40;;;19.90;;
15806;SDS011;8005;51.368;6.140;2022-08-19T09:32:01;25.17;;;19.33;;
15806;SDS011;8005;51.368;6.140;2022-08-19T09:33:33;25.20;;;19.05;;
15806;SDS011;8005;51.368;6.140;2022-08-19T09:35:05;25.42;;;18.55;;
15806;SDS011;8005;51.368;6.140;2022-08-19T09:36:40;30.50;;;18.83;;
15806;SDS011;8005;51.368;6.140;2022-08-19T09:38:12;29.63;;;20.98;;
15806;SDS011;8005;51.368;6.140;2022-08-19T09:39:44;26.17;;;18.98;;
15806;SDS011;8005;51.368;6.140;2022-08-19T09:41:17;23.73;;;18.58;;
15806;SDS011;8005;51.368;6.140;2022-08-19T09:42:50;32.22;;;21.33;;
15806;SDS011;8005;51.368;6.140;2022-08-19T09:44:23;27.20;;;19.33;;
15806;SDS011;8005;51.368;6.140;2022-08-19T09:45:57;26.20;;;18.73;;
15806;SDS011;8005;51.368;6.140;2022-08-19T09:47:29;21.25;;;16.67;;
15806;SDS011;8005;51.368;6.140;2022-08-19T09:49:02;23.13;;;17.40;;
15806;SDS011;8005;51.368;6.140;2022-08-19T09:50:37;23.33;;;16.98;;
15806;SDS011;8005;51.368;6.140;2022-08-19T09:52:22;20.02;;;15.70;;
15806;SDS011;8005;51.368;6.140;2022-08-19T09:55:29;17.13;;;13.90;;
15806;SDS011;8005;51.368;6.140;2022-08-19T09:57:03;19.08;;;13.00;;
15806;SDS011;8005;51.368;6.140;2022-08-19T09:58:38;18.10;;;12.95;;
15806;SDS011;8005;51.368;6.140;2022-08-19T10:00:10;18.40;;;13.57;;
15806;SDS011;8005;51.368;6.140;2022-08-19T10:01:42;15.90;;;12.77;;
15806;SDS011;8005;51.368;6.140;2022-08-19T10:03:16;17.77;;;12.60;;